Time;durP1;ratioP1;P1;durP2;ratioP2;P2;SDS_P1;SDS_P2;PMS_P1;PMS_P2;Temp;Humidity;BMP_temperature;BMP_pressure;BME280_temperature;BME280_humidity;BME280_pressure;Samples;Min_cycle;Max_cycle;Signal;HPM_P1;HPM_P2
2023/05/13 00:01:22;;;;;;;6.50;4.38;;;;;;;;;;5091169;28;20206;-65
2023/05/13 00:03:48;;;;;;;6.80;4.32;;;;;;;;;;5091147;28;20209;-65
2023/05/13 00:06:13;;;;;;;8.30;4.03;;;;;;;;;;5081077;28;20221;-64
2023/05/13 00:08:38;;;;;;;12.27;4.50;;;;;;;;;;5071126;28;20206;-65
2023/05/13 00:11:03;;;;;;;7.40;4.57;;;;;;;;;;5087601;28;20747;-64
2023/05/13 00:13:29;;;;;;;8.90;4.20;;;;;;;;;;5090991;28;20316;-65
2023/05/13 00:15:54;;;;;;;9.13;4.28;;;;;;;;;;5089689;28;20255;-65
2023/05/13 00:18:19;;;;;;;7.00;4.18;;;;;;;;;;5069975;28;20210;-65
2023/05/13 00:20:45;;;;;;;9.00;4.57;;;;;;;;;;5069357;28;20206;-65
2023/05/13 00:23:10;;;;;;;9.57;4.30;;;;;;;;;;5069829;28;20756;-64
2023/05/13 00:25:36;;;;;;;7.72;4.75;;;;;;;;;;5070870;28;20225;-65
2023/05/13 00:28:01;;;;;;;8.23;4.60;;;;;;;;;;5070117;28;20206;-64
2023/05/13 00:30:26;;;;;;;12.25;4.72;;;;;;;;;;5070324;28;20229;-65
2023/05/13 00:32:51;;;;;;;8.25;4.47;;;;;;;;;;5070788;28;20209;-65
2023/05/13 00:35:17;;;;;;;11.63;4.60;;;;;;;;;;5069829;28;20690;-64
2023/05/13 00:37:42;;;;;;;7.65;4.47;;;;;;;;;;5070311;28;20205;-65
2023/05/13 00:40:11;;;;;;;8.77;4.50;;;;;;;;;;5069861;28;20620;-65
2023/05/13 00:42:36;;;;;;;9.30;4.90;;;;;;;;;;5070239;28;20221;-65
2023/05/13 00:45:01;;;;;;;8.50;4.43;;;;;;;;;;5069532;28;20219;-64
2023/05/13 00:47:27;;;;;;;7.63;4.35;;;;;;;;;;5070519;28;20237;-65
2023/05/13 00:49:52;;;;;;;9.10;4.75;;;;;;;;;;5069293;28;20226;-65
2023/05/13 00:52:17;;;;;;;8.23;4.75;;;;;;;;;;5088421;28;20672;-65
2023/05/13 00:54:43;;;;;;;8.07;4.68;;;;;;;;;;5090492;28;20248;-65
2023/05/13 00:57:08;;;;;;;8.65;4.68;;;;;;;;;;5090204;28;20542;-64
2023/05/13 00:59:33;;;;;;;13.27;5.22;;;;;;;;;;5090323;28;20209;-65
2023/05/13 01:02:03;;;;;;;8.15;5.13;;;;;;;;;;5090070;28;20235;-65
2023/05/13 01:04:37;;;;;;;8.30;5.68;;;;;;;;;;5088972;28;20213;-65
2023/05/13 01:07:06;;;;;;;9.75;5.22;;;;;;;;;;5071682;28;20220;-65
2023/05/13 01:09:37;;;;;;;12.25;5.75;;;;;;;;;;5074804;28;20206;-65
2023/05/13 01:12:06;;;;;;;10.45;5.57;;;;;;;;;;5088630;28;20209;-65
2023/05/13 01:14:32;;;;;;;8.95;5.38;;;;;;;;;;5088520;28;20278;-65
2023/05/13 01:17:01;;;;;;;9.90;5.30;;;;;;;;;;5078236;28;20616;-65
2023/05/13 01:19:29;;;;;;;8.88;5.22;;;;;;;;;;5069269;28;20245;-65
2023/05/13 01:21:55;;;;;;;9.13;5.45;;;;;;;;;;5070238;28;20650;-65
2023/05/13 01:24:20;;;;;;;9.20;5.82;;;;;;;;;;5066581;28;20240;-65
2023/05/13 01:26:45;;;;;;;8.18;5.35;;;;;;;;;;5063880;28;20248;-65
2023/05/13 01:29:11;;;;;;;11.02;5.45;;;;;;;;;;5073540;28;20304;-65
2023/05/13 01:31:36;;;;;;;8.98;5.65;;;;;;;;;;5074844;28;20304;-65
2023/05/13 01:34:02;;;;;;;9.10;5.47;;;;;;;;;;5060318;28;20669;-64
2023/05/13 01:36:27;;;;;;;11.65;6.05;;;;;;;;;;5071375;28;20210;-65
2023/05/13 01:38:52;;;;;;;7.95;5.75;;;;;;;;;;5058200;28;20259;-66
2023/05/13 01:41:17;;;;;;;8.30;5.40;;;;;;;;;;5067803;28;20214;-65
2023/05/13 01:43:43;;;;;;;9.52;5.18;;;;;;;;;;5076446;28;20274;-65
2023/05/13 01:46:11;;;;;;;9.18;5.50;;;;;;;;;;5071095;28;20269;-64
2023/05/13 01:48:36;;;;;;;10.77;5.78;;;;;;;;;;5065175;28;20198;-65
2023/05/13 01:51:03;;;;;;;11.90;6.47;;;;;;;;;;5064887;28;20218;-65
2023/05/13 01:53:28;;;;;;;7.40;5.47;;;;;;;;;;5069939;28;20297;-65
2023/05/13 01:55:54;;;;;;;10.25;6.10;;;;;;;;;;5066953;28;20572;-65
2023/05/13 01:58:19;;;;;;;10.48;6.18;;;;;;;;;;5075619;28;21880;-65
2023/05/13 02:00:44;;;;;;;9.45;6.13;;;;;;;;;;5079649;28;20237;-66
2023/05/13 02:03:10;;;;;;;8.23;6.30;;;;;;;;;;5069201;28;20713;-65
2023/05/13 02:05:35;;;;;;;9.38;6.35;;;;;;;;;;5056674;28;20230;-65
2023/05/13 02:08:00;;;;;;;8.57;5.55;;;;;;;;;;5076205;28;20216;-62
2023/05/13 02:10:25;;;;;;;11.45;5.75;;;;;;;;;;5075538;28;20677;-66
2023/05/13 02:12:51;;;;;;;12.45;6.78;;;;;;;;;;5063592;28;20659;-65
2023/05/13 02:15:16;;;;;;;8.35;6.20;;;;;;;;;;5081056;28;20471;-65
2023/05/13 02:17:41;;;;;;;12.38;7.38;;;;;;;;;;5071229;28;20265;-65
2023/05/13 02:20:07;;;;;;;12.20;6.50;;;;;;;;;;5064471;28;20210;-65
2023/05/13 02:22:32;;;;;;;7.95;6.20;;;;;;;;;;5081902;28;20249;-66
2023/05/13 02:24:57;;;;;;;10.82;6.85;;;;;;;;;;5075918;28;20251;-65
2023/05/13 02:27:23;;;;;;;7.95;6.78;;;;;;;;;;5075090;28;20332;-65
2023/05/13 02:29:48;;;;;;;9.98;6.93;;;;;;;;;;5076924;28;20684;-65
2023/05/13 02:32:13;;;;;;;10.48;7.40;;;;;;;;;;5075729;28;20209;-65
2023/05/13 02:34:38;;;;;;;9.43;6.90;;;;;;;;;;5079821;28;20301;-65
2023/05/13 02:37:04;;;;;;;10.23;7.30;;;;;;;;;;5062909;28;20552;-65
2023/05/13 02:39:29;;;;;;;9.80;6.68;;;;;;;;;;5082862;28;20229;-65
2023/05/13 02:41:55;;;;;;;12.73;7.10;;;;;;;;;;5082637;28;20214;-65
2023/05/13 02:44:20;;;;;;;10.15;7.10;;;;;;;;;;5082254;28;20241;-65
2023/05/13 02:46:45;;;;;;;9.85;6.38;;;;;;;;;;5059735;28;20287;-65
2023/05/13 02:49:11;;;;;;;9.20;7.13;;;;;;;;;;5059055;28;20727;-65
2023/05/13 02:51:36;;;;;;;11.90;7.22;;;;;;;;;;5055444;28;20284;-65
2023/05/13 02:54:01;;;;;;;12.35;7.50;;;;;;;;;;5080558;28;20212;-64
2023/05/13 02:56:27;;;;;;;11.95;7.25;;;;;;;;;;5063533;28;20210;-65
2023/05/13 02:58:52;;;;;;;11.60;7.60;;;;;;;;;;5064658;28;20206;-65
2023/05/13 03:01:17;;;;;;;9.65;7.25;;;;;;;;;;5082225;28;20386;-65
2023/05/13 03:03:43;;;;;;;9.88;7.10;;;;;;;;;;5082803;28;20232;-65
2023/05/13 03:06:08;;;;;;;12.57;7.38;;;;;;;;;;5073569;28;20290;-65
2023/05/13 03:08:33;;;;;;;10.65;8.10;;;;;;;;;;5058652;28;20237;-65
2023/05/13 03:10:59;;;;;;;11.15;7.75;;;;;;;;;;5055665;28;20558;-65
2023/05/13 03:13:25;;;;;;;10.60;8.20;;;;;;;;;;5071304;28;20732;-65
2023/05/13 03:15:50;;;;;;;10.10;8.18;;;;;;;;;;5075054;28;20348;-65
2023/05/13 03:18:15;;;;;;;13.02;8.15;;;;;;;;;;5061717;28;20225;-65
2023/05/13 03:20:40;;;;;;;10.93;7.75;;;;;;;;;;5062653;28;20210;-65
2023/05/13 03:23:06;;;;;;;9.45;8.05;;;;;;;;;;5061699;28;20423;-65
2023/05/13 03:25:31;;;;;;;13.40;8.05;;;;;;;;;;5062869;28;20675;-66
2023/05/13 03:27:56;;;;;;;13.10;8.38;;;;;;;;;;5066118;28;20213;-65
2023/05/13 03:30:22;;;;;;;11.23;8.65;;;;;;;;;;5066878;28;20300;-66
2023/05/13 03:32:47;;;;;;;11.52;8.40;;;;;;;;;;5060058;28;20841;-65
2023/05/13 03:35:13;;;;;;;10.80;8.38;;;;;;;;;;5053711;28;20250;-65
2023/05/13 03:37:38;;;;;;;13.90;9.27;;;;;;;;;;5066261;28;20210;-65
2023/05/13 03:40:03;;;;;;;14.70;9.50;;;;;;;;;;5061980;28;20214;-65
2023/05/13 03:42:29;;;;;;;11.48;8.35;;;;;;;;;;5061909;28;20576;-65
2023/05/13 03:44:55;;;;;;;12.68;8.90;;;;;;;;;;5064149;28;20674;-65
2023/05/13 03:47:21;;;;;;;13.77;9.77;;;;;;;;;;5061140;28;20226;-65
2023/05/13 03:49:47;;;;;;;11.95;8.63;;;;;;;;;;5061914;28;20213;-65
2023/05/13 03:52:13;;;;;;;14.23;9.05;;;;;;;;;;5072290;28;20209;-66
2023/05/13 03:54:38;;;;;;;12.10;9.10;;;;;;;;;;5055034;28;20681;-66
2023/05/13 03:57:03;;;;;;;12.00;9.00;;;;;;;;;;5053522;28;20870;-65
2023/05/13 03:59:28;;;;;;;14.40;9.38;;;;;;;;;;5054333;28;20210;-65
2023/05/13 04:01:54;;;;;;;13.52;9.93;;;;;;;;;;5063639;28;20214;-65
2023/05/13 04:04:19;;;;;;;14.68;9.65;;;;;;;;;;5085151;28;20386;-65
2023/05/13 04:06:44;;;;;;;13.38;9.35;;;;;;;;;;5077292;28;20212;-65
2023/05/13 04:09:10;;;;;;;12.35;9.50;;;;;;;;;;5071897;28;20202;-65
2023/05/13 04:11:35;;;;;;;13.63;9.40;;;;;;;;;;5091460;28;20213;-65
2023/05/13 04:14:00;;;;;;;13.88;9.43;;;;;;;;;;5091245;28;20305;-65
2023/05/13 04:16:26;;;;;;;12.15;10.13;;;;;;;;;;5084532;28;20218;-65
2023/05/13 04:18:51;;;;;;;12.38;9.85;;;;;;;;;;5070675;28;20571;-65
2023/05/13 04:21:17;;;;;;;14.65;11.20;;;;;;;;;;5070466;28;20222;-64
2023/05/13 04:23:42;;;;;;;11.65;9.73;;;;;;;;;;5070330;28;20218;-65
2023/05/13 04:26:07;;;;;;;11.35;9.55;;;;;;;;;;5070274;28;20210;-65
2023/05/13 04:28:33;;;;;;;13.70;9.85;;;;;;;;;;5070867;28;20202;-65
2023/05/13 04:30:58;;;;;;;14.70;10.10;;;;;;;;;;5069991;28;20674;-65
2023/05/13 04:33:24;;;;;;;13.50;9.60;;;;;;;;;;5070292;28;20622;-65
2023/05/13 04:35:49;;;;;;;11.80;10.23;;;;;;;;;;5070884;28;20213;-65
2023/05/13 04:38:14;;;;;;;13.18;9.25;;;;;;;;;;5069587;28;20218;-65
2023/05/13 04:40:40;;;;;;;13.80;9.95;;;;;;;;;;5070350;28;20285;-65
2023/05/13 04:43:05;;;;;;;16.13;10.50;;;;;;;;;;5070373;28;20226;-65
2023/05/13 04:45:30;;;;;;;14.63;10.35;;;;;;;;;;5070045;28;20209;-65
2023/05/13 04:47:56;;;;;;;13.23;10.10;;;;;;;;;;5070340;28;20211;-66
2023/05/13 04:50:21;;;;;;;12.00;9.85;;;;;;;;;;5070016;28;20610;-66
2023/05/13 04:52:46;;;;;;;13.25;9.98;;;;;;;;;;5067433;28;20568;-65
2023/05/13 04:55:12;;;;;;;13.93;10.40;;;;;;;;;;5061979;28;20222;-65
2023/05/13 04:57:37;;;;;;;16.00;11.38;;;;;;;;;;5061473;28;20640;-65
2023/05/13 05:00:03;;;;;;;14.85;10.60;;;;;;;;;;5072141;28;20221;-65
2023/05/13 05:02:29;;;;;;;14.50;10.77;;;;;;;;;;5080331;28;20230;-65
2023/05/13 05:04:55;;;;;;;11.13;9.82;;;;;;;;;;5069503;28;20242;-65
2023/05/13 05:07:20;;;;;;;14.20;10.10;;;;;;;;;;5053049;28;20306;-65
2023/05/13 05:09:45;;;;;;;13.85;10.68;;;;;;;;;;5052156;28;20240;-66
2023/05/13 05:12:10;;;;;;;15.50;10.63;;;;;;;;;;5056794;28;20290;-64
2023/05/13 05:14:37;;;;;;;14.93;9.57;;;;;;;;;;5073414;28;20226;-65
2023/05/13 05:17:02;;;;;;;13.48;10.35;;;;;;;;;;5073055;28;20689;-64
2023/05/13 05:19:27;;;;;;;11.93;9.68;;;;;;;;;;5060338;28;20202;-65
2023/05/13 05:21:52;;;;;;;12.80;10.57;;;;;;;;;;5066058;28;20548;-66
2023/05/13 05:24:18;;;;;;;12.95;9.75;;;;;;;;;;5060600;28;20684;-65
2023/05/13 05:26:43;;;;;;;12.95;10.18;;;;;;;;;;5077566;28;20212;-64
2023/05/13 05:29:08;;;;;;;12.93;9.73;;;;;;;;;;5072580;28;20224;-63
2023/05/13 05:31:34;;;;;;;14.48;10.48;;;;;;;;;;5067613;28;20765;-63
2023/05/13 05:34:00;;;;;;;14.90;9.88;;;;;;;;;;5058215;28;20232;-64
2023/05/13 05:36:25;;;;;;;11.27;9.43;;;;;;;;;;5070057;28;20198;-63
2023/05/13 05:38:51;;;;;;;12.53;9.67;;;;;;;;;;5069575;28;20419;-63
2023/05/13 05:41:16;;;;;;;12.65;8.70;;;;;;;;;;5068970;28;20336;-63
2023/05/13 05:43:41;;;;;;;13.13;9.38;;;;;;;;;;5075193;28;20264;-62
2023/05/13 05:46:07;;;;;;;16.33;9.68;;;;;;;;;;5082833;28;20201;-62
2023/05/13 05:48:32;;;;;;;13.00;9.77;;;;;;;;;;5081553;28;20600;-63
2023/05/13 05:50:58;;;;;;;14.38;9.70;;;;;;;;;;5083876;28;20205;-62
2023/05/13 05:53:23;;;;;;;11.52;9.10;;;;;;;;;;5080447;28;20264;-63
2023/05/13 05:55:48;;;;;;;11.75;9.50;;;;;;;;;;5083650;28;20638;-62
2023/05/13 05:58:13;;;;;;;16.05;9.35;;;;;;;;;;5081552;28;20680;-63
2023/05/13 06:00:39;;;;;;;14.27;9.63;;;;;;;;;;5080216;28;20203;-63
2023/05/13 06:03:04;;;;;;;12.95;8.73;;;;;;;;;;5082175;28;20206;-61
2023/05/13 06:05:29;;;;;;;12.50;8.55;;;;;;;;;;5072233;28;20214;-61
2023/05/13 06:07:55;;;;;;;12.88;9.07;;;;;;;;;;5079238;28;20225;-62
2023/05/13 06:10:20;;;;;;;13.03;9.13;;;;;;;;;;5076536;28;20461;-62
2023/05/13 06:12:45;;;;;;;14.35;8.85;;;;;;;;;;5069548;28;20226;-62
2023/05/13 06:15:10;;;;;;;12.10;8.52;;;;;;;;;;5073469;28;20265;-62
2023/05/13 06:17:36;;;;;;;10.60;8.77;;;;;;;;;;5068535;28;20214;-62
2023/05/13 06:20:02;;;;;;;12.23;7.97;;;;;;;;;;5069776;28;20264;-61
2023/05/13 06:22:27;;;;;;;14.15;7.85;;;;;;;;;;5072590;28;20218;-63
2023/05/13 06:24:53;;;;;;;13.32;8.43;;;;;;;;;;5072684;28;20206;-64
2023/05/13 06:27:18;;;;;;;11.73;8.25;;;;;;;;;;5071456;28;20570;-64
2023/05/13 06:29:43;;;;;;;11.88;8.20;;;;;;;;;;5072577;28;20206;-64
2023/05/13 06:32:09;;;;;;;12.77;7.65;;;;;;;;;;5072315;28;20290;-63
2023/05/13 06:34:34;;;;;;;12.32;8.00;;;;;;;;;;5073100;28;20213;-64
2023/05/13 06:36:59;;;;;;;11.05;7.50;;;;;;;;;;5080144;28;20290;-64
2023/05/13 06:39:24;;;;;;;10.43;7.70;;;;;;;;;;5071983;28;20207;-63
2023/05/13 06:41:50;;;;;;;13.63;7.63;;;;;;;;;;5082994;28;20612;-63
2023/05/13 06:44:15;;;;;;;10.80;7.75;;;;;;;;;;5087040;28;20557;-63
2023/05/13 06:46:40;;;;;;;13.43;7.50;;;;;;;;;;5092932;28;20202;-63
2023/05/13 06:49:06;;;;;;;10.63;8.17;;;;;;;;;;5079991;28;20403;-62
2023/05/13 06:51:32;;;;;;;10.13;7.97;;;;;;;;;;5072329;28;20202;-61
2023/05/13 06:53:58;;;;;;;10.43;7.97;;;;;;;;;;5072485;28;20218;-63
2023/05/13 06:56:23;;;;;;;10.07;8.52;;;;;;;;;;5080079;28;20633;-63
2023/05/13 06:58:49;;;;;;;9.83;7.50;;;;;;;;;;5091708;28;20772;-63
2023/05/13 07:01:15;;;;;;;11.52;8.02;;;;;;;;;;5085903;28;20214;-63
2023/05/13 07:03:40;;;;;;;10.02;7.80;;;;;;;;;;5086901;28;20253;-62
2023/05/13 07:06:06;;;;;;;12.25;8.15;;;;;;;;;;5083782;28;20291;-62
2023/05/13 07:08:31;;;;;;;12.05;8.13;;;;;;;;;;5083231;28;20221;-63
2023/05/13 07:10:56;;;;;;;9.52;7.82;;;;;;;;;;5074948;28;20268;-63
2023/05/13 07:13:21;;;;;;;11.25;8.02;;;;;;;;;;5079893;28;20851;-63
2023/05/13 07:15:47;;;;;;;10.45;7.85;;;;;;;;;;5072774;28;20263;-63
2023/05/13 07:18:12;;;;;;;10.90;7.50;;;;;;;;;;5071253;28;20220;-62
2023/05/13 07:20:37;;;;;;;11.15;7.35;;;;;;;;;;5090752;28;20217;-63
2023/05/13 07:23:03;;;;;;;12.02;7.80;;;;;;;;;;5091968;28;20591;-63
2023/05/13 07:25:28;;;;;;;12.65;8.18;;;;;;;;;;5091332;28;20229;-64
2023/05/13 07:27:53;;;;;;;8.95;8.02;;;;;;;;;;5092292;28;20222;-63
2023/05/13 07:30:19;;;;;;;13.52;7.63;;;;;;;;;;5091815;28;20242;-63
2023/05/13 07:32:44;;;;;;;10.73;8.15;;;;;;;;;;5090989;28;20201;-63
2023/05/13 07:35:09;;;;;;;15.13;8.00;;;;;;;;;;5091403;28;20210;-63
2023/05/13 07:37:35;;;;;;;11.38;7.18;;;;;;;;;;5092193;28;20297;-63
2023/05/13 07:40:01;;;;;;;9.63;7.63;;;;;;;;;;5090650;28;20245;-62
2023/05/13 07:42:28;;;;;;;12.18;7.43;;;;;;;;;;5091831;28;20237;-63
2023/05/13 07:44:54;;;;;;;11.30;7.30;;;;;;;;;;5092024;28;20214;-63
2023/05/13 07:47:19;;;;;;;10.65;7.80;;;;;;;;;;5088572;28;20703;-64
2023/05/13 07:49:44;;;;;;;10.80;7.50;;;;;;;;;;5071408;28;20301;-65
2023/05/13 07:52:09;;;;;;;11.55;7.88;;;;;;;;;;5070154;28;20203;-64
2023/05/13 07:54:35;;;;;;;9.30;7.80;;;;;;;;;;5070827;28;20297;-64
2023/05/13 07:57:00;;;;;;;11.80;7.05;;;;;;;;;;5070679;28;20217;-60
2023/05/13 07:59:25;;;;;;;10.10;7.93;;;;;;;;;;5071318;28;20209;-64
2023/05/13 08:01:51;;;;;;;16.48;7.93;;;;;;;;;;5070879;28;20215;-63
2023/05/13 08:04:17;;;;;;;15.63;7.75;;;;;;;;;;5069254;28;20724;-63
2023/05/13 08:06:42;;;;;;;12.23;6.68;;;;;;;;;;5071202;28;20289;-64
2023/05/13 08:09:08;;;;;;;12.30;6.00;;;;;;;;;;5069728;28;20749;-63
2023/05/13 08:11:34;;;;;;;10.70;7.25;;;;;;;;;;5070902;28;20207;-64
2023/05/13 08:13:59;;;;;;;10.50;6.88;;;;;;;;;;5071125;28;20592;-64
2023/05/13 08:16:24;;;;;;;10.65;7.93;;;;;;;;;;5075533;28;20258;-63
2023/05/13 08:18:50;;;;;;;10.93;7.18;;;;;;;;;;5091086;28;20284;-64
2023/05/13 08:21:15;;;;;;;11.55;7.00;;;;;;;;;;5090806;28;20217;-63
2023/05/13 08:23:40;;;;;;;11.15;6.72;;;;;;;;;;5090365;28;20221;-64
2023/05/13 08:26:05;;;;;;;10.40;6.28;;;;;;;;;;5090470;28;20213;-62
2023/05/13 08:28:31;;;;;;;9.27;6.55;;;;;;;;;;5090711;28;20293;-64
2023/05/13 08:31:01;;;;;;;14.25;7.00;;;;;;;;;;5090821;28;20255;-64
2023/05/13 08:33:27;;;;;;;10.93;6.45;;;;;;;;;;5090936;28;20210;-63
2023/05/13 08:35:53;;;;;;;11.15;6.65;;;;;;;;;;5090483;28;20202;-64
2023/05/13 08:38:18;;;;;;;11.38;6.95;;;;;;;;;;5089992;28;20213;-64
2023/05/13 08:40:43;;;;;;;10.38;6.90;;;;;;;;;;5090738;28;20201;-64
2023/05/13 08:43:09;;;;;;;13.02;6.13;;;;;;;;;;5087975;28;20627;-63
2023/05/13 08:45:34;;;;;;;9.77;6.65;;;;;;;;;;5090186;28;20513;-64
2023/05/13 08:48:00;;;;;;;10.23;6.25;;;;;;;;;;5081503;28;20202;-64
2023/05/13 08:50:26;;;;;;;9.98;6.55;;;;;;;;;;5069647;28;21053;-64
2023/05/13 08:52:52;;;;;;;11.57;6.40;;;;;;;;;;5068973;28;20260;-64
2023/05/13 08:55:17;;;;;;;8.43;5.28;;;;;;;;;;5069660;28;20210;-64
2023/05/13 08:57:43;;;;;;;9.30;4.95;;;;;;;;;;5069998;28;20220;-63
2023/05/13 09:00:08;;;;;;;8.40;5.15;;;;;;;;;;5069769;28;20253;-63
2023/05/13 09:02:34;;;;;;;9.23;5.47;;;;;;;;;;5070439;28;20313;-64
2023/05/13 09:05:04;;;;;;;9.73;5.88;;;;;;;;;;5069855;28;20217;-64
2023/05/13 09:07:29;;;;;;;8.60;5.13;;;;;;;;;;5069624;28;20211;-63
2023/05/13 09:09:54;;;;;;;9.63;5.40;;;;;;;;;;5077907;28;20546;-63
2023/05/13 09:12:45;;;;;;;8.82;5.07;;;;;;;;;;5089331;28;20224;-63
2023/05/13 09:15:11;;;;;;;9.85;4.93;;;;;;;;;;5089910;28;20585;-63
2023/05/13 09:17:38;;;;;;;9.00;4.63;;;;;;;;;;5073617;28;20214;-63
2023/05/13 09:20:08;;;;;;;8.77;4.88;;;;;;;;;;5068872;28;20727;-63
2023/05/13 09:22:33;;;;;;;8.15;4.65;;;;;;;;;;5070145;28;20218;-64
2023/05/13 09:24:58;;;;;;;8.07;4.70;;;;;;;;;;5069144;28;20229;-64
2023/05/13 09:27:34;;;;;;;7.07;4.32;;;;;;;;;;5069406;28;20210;-63
2023/05/13 09:29:59;;;;;;;9.57;4.82;;;;;;;;;;5070106;28;20318;-63
2023/05/13 09:32:25;;;;;;;7.63;4.78;;;;;;;;;;5069278;28;20741;-64
2023/05/13 09:34:50;;;;;;;10.40;5.30;;;;;;;;;;5069716;28;20289;-64
2023/05/13 09:37:16;;;;;;;6.88;5.20;;;;;;;;;;5069657;28;20297;-64
2023/05/13 09:39:42;;;;;;;7.88;5.00;;;;;;;;;;5068970;28;20230;-64
2023/05/13 09:42:13;;;;;;;6.85;4.88;;;;;;;;;;5069222;28;20295;-63
2023/05/13 09:44:39;;;;;;;9.40;4.97;;;;;;;;;;5069890;28;20267;-64
2023/05/13 09:47:04;;;;;;;8.60;5.10;;;;;;;;;;5069048;28;20669;-63
2023/05/13 09:49:30;;;;;;;10.23;4.68;;;;;;;;;;5069500;28;20218;-64
2023/05/13 09:51:55;;;;;;;12.82;4.82;;;;;;;;;;5068867;28;20734;-64
2023/05/13 09:54:20;;;;;;;7.70;4.85;;;;;;;;;;5068393;28;20217;-63
2023/05/13 09:56:46;;;;;;;7.50;4.40;;;;;;;;;;5073232;28;20673;-64
2023/05/13 09:59:11;;;;;;;7.53;4.50;;;;;;;;;;5093417;28;20222;-64
2023/05/13 10:01:36;;;;;;;8.15;4.50;;;;;;;;;;5093344;28;20647;-64
2023/05/13 10:04:04;;;;;;;7.07;4.40;;;;;;;;;;5092009;28;20225;-63
2023/05/13 10:06:30;;;;;;;6.90;4.78;;;;;;;;;;5080483;28;20228;-63
2023/05/13 10:08:56;;;;;;;8.55;4.90;;;;;;;;;;5072844;28;20222;-64
2023/05/13 10:11:22;;;;;;;8.43;5.28;;;;;;;;;;5092812;28;20209;-64
2023/05/13 10:13:48;;;;;;;11.63;4.97;;;;;;;;;;5093544;28;20644;-64
2023/05/13 10:16:14;;;;;;;8.32;4.82;;;;;;;;;;5088324;28;20753;-64
2023/05/13 10:18:39;;;;;;;7.50;5.00;;;;;;;;;;5073647;28;20508;-64
2023/05/13 10:21:04;;;;;;;8.55;4.72;;;;;;;;;;5072069;28;20211;-64
2023/05/13 10:23:31;;;;;;;7.47;4.95;;;;;;;;;;5072989;28;20246;-63
2023/05/13 10:25:57;;;;;;;8.63;4.57;;;;;;;;;;5073792;28;20276;-63
2023/05/13 10:28:24;;;;;;;11.45;5.00;;;;;;;;;;5080666;28;20225;-64
2023/05/13 10:30:50;;;;;;;8.38;4.95;;;;;;;;;;5092136;28;20501;-64
2023/05/13 10:33:15;;;;;;;7.18;4.90;;;;;;;;;;5092260;28;20692;-64
2023/05/13 10:35:41;;;;;;;9.18;5.18;;;;;;;;;;5091755;28;20217;-65
2023/05/13 10:38:14;;;;;;;7.63;4.32;;;;;;;;;;5091209;28;20210;-64
2023/05/13 10:40:43;;;;;;;7.63;4.95;;;;;;;;;;5091873;28;20209;-65
2023/05/13 10:43:10;;;;;;;8.85;4.20;;;;;;;;;;5090586;28;20704;-64
2023/05/13 10:45:35;;;;;;;9.40;5.00;;;;;;;;;;5091602;28;20206;-65
2023/05/13 10:48:05;;;;;;;7.05;3.92;;;;;;;;;;5090841;28;20210;-60
2023/05/13 10:50:31;;;;;;;8.55;4.95;;;;;;;;;;5092464;28;20292;-64
2023/05/13 10:52:57;;;;;;;7.75;4.40;;;;;;;;;;5092842;28;20803;-64
2023/05/13 10:55:22;;;;;;;8.32;4.47;;;;;;;;;;5092428;28;20578;-65
2023/05/13 10:58:09;;;;;;;7.03;4.53;;;;;;;;;;5092141;28;20206;-65
2023/05/13 11:00:35;;;;;;;6.88;4.30;;;;;;;;;;5092314;28;20213;-65
2023/05/13 11:03:07;;;;;;;8.25;4.40;;;;;;;;;;5092741;28;20593;-62
2023/05/13 11:05:33;;;;;;;7.00;3.88;;;;;;;;;;5088091;28;20206;-64
2023/05/13 11:07:58;;;;;;;9.90;4.20;;;;;;;;;;5070134;28;20249;-65
2023/05/13 11:10:24;;;;;;;9.07;3.40;;;;;;;;;;5070894;28;20244;-64
2023/05/13 11:13:08;;;;;;;6.75;3.40;;;;;;;;;;5071754;28;20618;-65
2023/05/13 11:15:43;;;;;;;9.73;3.63;;;;;;;;;;5071891;28;20226;-65
2023/05/13 11:18:09;;;;;;;7.15;3.28;;;;;;;;;;5071341;28;20298;-64
2023/05/13 11:20:36;;;;;;;6.05;3.67;;;;;;;;;;5070660;28;20639;-65
2023/05/13 11:23:01;;;;;;;8.40;3.20;;;;;;;;;;5071831;28;20701;-64
2023/05/13 11:25:27;;;;;;;5.28;2.85;;;;;;;;;;5071550;28;20230;-65
2023/05/13 11:27:52;;;;;;;6.55;2.70;;;;;;;;;;5071570;28;20660;-64
2023/05/13 11:30:21;;;;;;;7.72;3.40;;;;;;;;;;5071387;28;20219;-65
2023/05/13 11:32:49;;;;;;;4.60;2.80;;;;;;;;;;5071538;28;20294;-65
2023/05/13 11:35:18;;;;;;;5.55;3.00;;;;;;;;;;5071359;28;20221;-64
2023/05/13 11:37:44;;;;;;;5.68;2.80;;;;;;;;;;5072044;28;20226;-65
2023/05/13 11:40:09;;;;;;;6.03;2.88;;;;;;;;;;5069597;28;20460;-64
2023/05/13 11:42:34;;;;;;;6.97;3.03;;;;;;;;;;5069806;28;20276;-65
2023/05/13 11:45:00;;;;;;;6.07;3.15;;;;;;;;;;5071775;28;20207;-65
2023/05/13 11:47:27;;;;;;;7.05;2.88;;;;;;;;;;5070983;28;20580;-65
2023/05/13 11:49:52;;;;;;;7.03;3.22;;;;;;;;;;5071690;28;20681;-65
2023/05/13 11:52:17;;;;;;;6.25;2.80;;;;;;;;;;5071065;28;20224;-65
2023/05/13 11:54:47;;;;;;;7.55;3.25;;;;;;;;;;5070946;28;20293;-65
2023/05/13 11:57:15;;;;;;;7.88;3.35;;;;;;;;;;5070757;28;20221;-65
2023/05/13 11:59:40;;;;;;;4.43;2.80;;;;;;;;;;5071055;28;20214;-65
2023/05/13 12:02:05;;;;;;;5.95;3.03;;;;;;;;;;5062580;28;20206;-64
2023/05/13 12:04:30;;;;;;;4.20;2.47;;;;;;;;;;5071427;28;20230;-65
2023/05/13 12:06:56;;;;;;;8.05;2.70;;;;;;;;;;5086386;28;20606;-65
2023/05/13 12:09:22;;;;;;;6.32;2.63;;;;;;;;;;5087630;28;20214;-65
2023/05/13 12:11:47;;;;;;;5.40;2.83;;;;;;;;;;5070828;28;20209;-65
2023/05/13 12:14:13;;;;;;;5.43;3.15;;;;;;;;;;5069959;28;20226;-64
2023/05/13 12:16:38;;;;;;;5.25;3.38;;;;;;;;;;5064498;28;20211;-65
2023/05/13 12:19:04;;;;;;;6.30;3.30;;;;;;;;;;5070686;28;20206;-64
2023/05/13 12:21:30;;;;;;;6.20;2.63;;;;;;;;;;5070471;28;20206;-65
2023/05/13 12:23:57;;;;;;;6.93;2.83;;;;;;;;;;5070958;28;20766;-65
2023/05/13 12:26:22;;;;;;;4.20;2.70;;;;;;;;;;5070172;28;20808;-65
2023/05/13 12:28:48;;;;;;;3.95;3.03;;;;;;;;;;5070412;28;20301;-65
2023/05/13 12:31:14;;;;;;;6.97;2.60;;;;;;;;;;5074029;28;20229;-64
2023/05/13 12:33:40;;;;;;;5.65;2.70;;;;;;;;;;5069683;28;20214;-65
2023/05/13 12:36:13;;;;;;;6.50;3.15;;;;;;;;;;5062182;28;20282;-65
2023/05/13 12:38:38;;;;;;;9.48;2.92;;;;;;;;;;5059575;28;20729;-65
2023/05/13 12:41:10;;;;;;;5.60;2.40;;;;;;;;;;5065150;28;20503;-64
2023/05/13 12:43:35;;;;;;;4.45;2.67;;;;;;;;;;5084268;28;20222;-65
2023/05/13 12:46:00;;;;;;;5.75;2.60;;;;;;;;;;5084624;28;20267;-65
2023/05/13 12:48:25;;;;;;;4.60;2.78;;;;;;;;;;5073234;28;20218;-65
2023/05/13 12:50:51;;;;;;;8.27;2.92;;;;;;;;;;5077114;28;20575;-65
2023/05/13 12:53:17;;;;;;;8.00;2.90;;;;;;;;;;5084033;28;20585;-65
2023/05/13 12:55:43;;;;;;;4.35;2.60;;;;;;;;;;5079390;28;20216;-65
2023/05/13 12:58:10;;;;;;;6.93;2.70;;;;;;;;;;5075788;28;20639;-64
2023/05/13 13:00:35;;;;;;;6.65;2.80;;;;;;;;;;5077532;28;20220;-65
2023/05/13 13:03:00;;;;;;;3.88;2.47;;;;;;;;;;5077625;28;20226;-63
2023/05/13 13:05:25;;;;;;;7.55;2.83;;;;;;;;;;5081641;28;20301;-65
2023/05/13 13:07:51;;;;;;;7.40;2.78;;;;;;;;;;5083198;28;20224;-65
2023/05/13 13:10:16;;;;;;;8.20;3.17;;;;;;;;;;5072608;28;20294;-65
2023/05/13 13:12:41;;;;;;;11.73;3.00;;;;;;;;;;5064334;28;20203;-65
2023/05/13 13:15:07;;;;;;;8.07;3.13;;;;;;;;;;5064707;28;20206;-65
2023/05/13 13:17:32;;;;;;;5.18;2.67;;;;;;;;;;5063598;28;20214;-65
2023/05/13 13:19:57;;;;;;;6.43;2.80;;;;;;;;;;5056155;28;20664;-65
2023/05/13 13:22:23;;;;;;;8.35;2.88;;;;;;;;;;5056194;28;20229;-65
2023/05/13 13:24:48;;;;;;;4.13;3.00;;;;;;;;;;5058280;28;20218;-65
2023/05/13 13:27:13;;;;;;;8.20;2.90;;;;;;;;;;5063273;28;20202;-65
2023/05/13 13:29:39;;;;;;;6.25;3.40;;;;;;;;;;5065761;28;21132;-65
2023/05/13 13:32:05;;;;;;;7.15;3.30;;;;;;;;;;5071331;28;20218;-65
2023/05/13 13:34:30;;;;;;;4.57;2.78;;;;;;;;;;5075233;28;20713;-65
2023/05/13 13:36:55;;;;;;;7.18;2.85;;;;;;;;;;5076704;28;20302;-65
2023/05/13 13:39:21;;;;;;;5.93;2.90;;;;;;;;;;5075579;28;20229;-65
2023/05/13 13:41:46;;;;;;;6.70;2.85;;;;;;;;;;5076439;28;20489;-65
2023/05/13 13:44:11;;;;;;;5.57;2.75;;;;;;;;;;5076064;28;20223;-65
2023/05/13 13:46:37;;;;;;;5.32;3.00;;;;;;;;;;5076003;28;20206;-65
2023/05/13 13:49:02;;;;;;;10.18;3.20;;;;;;;;;;5077616;28;20329;-65
2023/05/13 13:51:27;;;;;;;5.03;2.88;;;;;;;;;;5076622;28;20669;-65
2023/05/13 13:53:52;;;;;;;5.38;2.90;;;;;;;;;;5075866;28;20206;-65
2023/05/13 13:56:18;;;;;;;6.80;3.10;;;;;;;;;;5076025;28;20217;-65
2023/05/13 13:58:44;;;;;;;5.85;2.80;;;;;;;;;;5075788;28;20206;-65
2023/05/13 14:01:09;;;;;;;4.53;3.03;;;;;;;;;;5074105;28;20218;-65
2023/05/13 14:03:34;;;;;;;6.00;3.08;;;;;;;;;;5075586;28;20805;-65
2023/05/13 14:06:00;;;;;;;6.30;2.80;;;;;;;;;;5075770;28;20206;-66
2023/05/13 14:08:25;;;;;;;5.55;3.22;;;;;;;;;;5073575;28;20206;-65
2023/05/13 14:10:51;;;;;;;5.82;2.83;;;;;;;;;;5092023;28;20619;-66
2023/05/13 14:13:16;;;;;;;5.43;2.60;;;;;;;;;;5084073;28;20225;-64
2023/05/13 14:15:41;;;;;;;5.63;3.00;;;;;;;;;;5095035;28;20244;-64
2023/05/13 14:18:07;;;;;;;6.20;3.25;;;;;;;;;;5076005;28;20943;-63
2023/05/13 14:20:34;;;;;;;6.53;2.90;;;;;;;;;;5083802;28;20202;-64
2023/05/13 14:22:59;;;;;;;5.88;2.60;;;;;;;;;;5083118;28;20272;-64
2023/05/13 14:25:25;;;;;;;6.03;3.00;;;;;;;;;;5076104;28;20211;-63
2023/05/13 14:27:50;;;;;;;5.78;3.10;;;;;;;;;;5074800;28;20206;-64